createdAt,value
2019-02-05T00:00:48.448Z,17.83
2019-02-05T00:03:52.904Z,18.00
2019-02-05T00:06:57.968Z,16.07
2019-02-05T00:10:02.378Z,16.00
2019-02-05T00:13:07.022Z,18.43
2019-02-05T00:16:12.538Z,18.93
2019-02-05T00:19:16.881Z,16.80
2019-02-05T00:22:21.310Z,18.00
2019-02-05T00:25:25.584Z,17.73
2019-02-05T00:28:31.604Z,13.43
2019-02-05T00:31:35.888Z,18.87
2019-02-05T00:34:40.303Z,19.33
2019-02-05T00:37:44.800Z,19.30
2019-02-05T00:40:49.086Z,18.90
2019-02-05T00:43:53.390Z,19.83
2019-02-05T00:46:57.688Z,17.67
2019-02-05T00:50:01.985Z,15.43
2019-02-05T00:53:06.283Z,19.90
2019-02-05T00:56:17.414Z,20.57
2019-02-05T00:59:16.642Z,23.07
2019-02-05T01:02:24.103Z,19.77
2019-02-05T01:05:28.789Z,18.60
2019-02-05T01:08:33.065Z,18.87
2019-02-05T01:11:39.426Z,16.40
2019-02-05T01:14:43.811Z,18.93
2019-02-05T01:17:50.517Z,19.40
2019-02-05T01:20:54.816Z,18.10
2019-02-05T01:23:59.111Z,19.37
2019-02-05T01:27:03.762Z,19.07
2019-02-05T01:30:10.636Z,19.83
2019-02-05T01:33:14.929Z,19.03
2019-02-05T01:36:19.429Z,19.43
2019-02-05T01:39:23.741Z,18.83
2019-02-05T01:42:28.033Z,17.60
2019-02-05T01:45:32.327Z,18.13
2019-02-05T01:48:36.607Z,19.50
2019-02-05T01:51:40.996Z,17.90
2019-02-05T01:54:45.785Z,19.23
2019-02-05T01:57:50.155Z,13.87
2019-02-05T02:00:57.399Z,18.40
2019-02-05T02:04:01.837Z,17.57
2019-02-05T02:07:06.728Z,12.53
2019-02-05T02:10:13.610Z,14.50
2019-02-05T02:13:18.065Z,13.00
2019-02-05T02:16:22.351Z,12.27
2019-02-05T02:19:26.771Z,13.80
2019-02-05T02:22:33.001Z,12.63
2019-02-05T02:25:44.308Z,13.40
2019-02-05T02:28:48.772Z,12.23
2019-02-05T02:31:54.536Z,11.53
2019-02-05T02:34:59.206Z,11.80
2019-02-05T02:38:04.112Z,11.67
2019-02-05T02:41:08.632Z,11.70
2019-02-05T02:44:13.286Z,9.67
2019-02-05T02:47:17.561Z,9.03
2019-02-05T02:50:21.866Z,10.40
2019-02-05T02:53:26.423Z,10.33
2019-02-05T02:56:30.782Z,10.47
2019-02-05T02:59:35.110Z,11.37
2019-02-05T03:02:39.582Z,11.17
2019-02-05T03:05:44.336Z,11.37
2019-02-05T03:08:48.767Z,11.63
2019-02-05T03:11:53.444Z,11.47
2019-02-05T03:14:57.741Z,10.73
2019-02-05T03:18:03.867Z,10.00
2019-02-05T03:21:08.150Z,10.13
2019-02-05T03:24:12.450Z,9.70
2019-02-05T03:27:18.262Z,8.83
2019-02-05T03:30:23.305Z,9.00
2019-02-05T03:33:27.708Z,9.40
2019-02-05T03:36:34.328Z,9.73
2019-02-05T03:39:38.606Z,9.37
2019-02-05T03:42:47.249Z,9.53
2019-02-05T03:45:51.836Z,10.30
2019-02-05T03:48:56.696Z,8.33
2019-02-05T03:52:19.278Z,8.73
2019-02-05T03:56:08.173Z,9.33
2019-02-05T03:59:43.331Z,7.43
2019-02-05T04:03:02.999Z,6.97
2019-02-05T04:06:16.931Z,7.77
2019-02-05T04:09:53.347Z,5.30
2019-02-05T04:13:13.269Z,5.63
2019-02-05T04:17:12.447Z,5.93
2019-02-05T04:20:53.564Z,6.00
2019-02-05T04:24:37.074Z,5.73
2019-02-05T04:28:28.461Z,5.97
2019-02-05T04:32:15.240Z,6.73
2019-02-05T04:35:55.362Z,5.83
2019-02-05T04:39:24.549Z,6.03
2019-02-05T04:43:00.877Z,6.50
2019-02-05T04:46:54.085Z,6.20
2019-02-05T04:50:48.939Z,7.53
2019-02-05T04:54:17.788Z,6.97
2019-02-05T04:58:05.215Z,7.97
2019-02-05T05:01:49.898Z,8.70
2019-02-05T05:05:38.163Z,6.50
2019-02-05T05:09:50.982Z,7.77
2019-02-05T05:12:55.257Z,7.10
2019-02-05T05:15:59.731Z,6.83
2019-02-05T05:19:06.067Z,6.80
2019-02-05T05:22:13.619Z,7.70
2019-02-05T05:25:20.027Z,5.60
2019-02-05T05:28:24.800Z,4.57
2019-02-05T05:31:29.554Z,5.17
2019-02-05T05:34:37.172Z,4.70
2019-02-05T05:37:41.473Z,3.67
2019-02-05T05:40:46.164Z,3.13
2019-02-05T05:43:50.454Z,3.87
2019-02-05T05:47:03.659Z,3.90
2019-02-05T05:50:10.599Z,4.10
2019-02-05T05:53:15.116Z,4.73
2019-02-05T05:56:22.171Z,3.60
2019-02-05T05:59:28.545Z,5.60
2019-02-05T06:02:35.300Z,5.33
2019-02-05T06:05:39.697Z,4.77
2019-02-05T06:08:43.993Z,4.93
2019-02-05T06:11:48.323Z,6.10
2019-02-05T06:14:52.904Z,6.63
2019-02-05T06:17:57.192Z,6.87
2019-02-05T06:21:01.586Z,7.00
2019-02-05T06:24:06.235Z,7.07
2019-02-05T06:27:10.847Z,7.40
2019-02-05T06:30:16.160Z,6.60
2019-02-05T06:33:23.543Z,8.23
2019-02-05T06:36:28.171Z,9.07
2019-02-05T06:39:32.445Z,8.77
2019-02-05T06:42:36.878Z,9.53
2019-02-05T06:45:41.682Z,10.40
2019-02-05T06:48:46.357Z,12.53
2019-02-05T06:51:50.658Z,14.57
2019-02-05T06:54:54.950Z,11.43
2019-02-05T06:57:59.289Z,11.10
2019-02-05T07:01:06.316Z,13.20
2019-02-05T07:04:10.601Z,14.17
2019-02-05T07:07:14.912Z,12.50
2019-02-05T07:10:21.063Z,13.60
2019-02-05T07:13:25.488Z,13.67
2019-02-05T07:16:29.831Z,13.30
2019-02-05T07:19:34.160Z,13.00
2019-02-05T07:22:38.746Z,13.23
2019-02-05T07:25:43.147Z,13.63
2019-02-05T07:28:58.199Z,12.33
2019-02-05T07:31:56.351Z,12.03
2019-02-05T07:35:01.259Z,10.23
2019-02-05T07:38:07.894Z,10.70
2019-02-05T07:41:12.199Z,11.03
2019-02-05T07:44:16.588Z,9.80
2019-02-05T07:47:23.379Z,10.73
2019-02-05T07:50:27.593Z,11.43
2019-02-05T07:53:33.277Z,12.33
2019-02-05T07:56:37.750Z,10.90
2019-02-05T07:59:47.010Z,11.93
2019-02-05T08:02:50.280Z,9.70
2019-02-05T08:05:54.585Z,9.97
2019-02-05T08:08:59.015Z,9.17
2019-02-05T08:12:03.326Z,11.10
2019-02-05T08:15:09.491Z,10.23
2019-02-05T08:18:17.135Z,10.73
2019-02-05T08:21:21.459Z,11.40
2019-02-05T08:24:25.887Z,11.90
2019-02-05T08:27:30.708Z,10.00
2019-02-05T08:30:41.185Z,12.53
2019-02-05T08:33:45.678Z,8.57
2019-02-05T08:36:49.989Z,8.00
2019-02-05T08:39:54.463Z,11.13
2019-02-05T08:42:58.795Z,8.57
2019-02-05T08:46:03.335Z,9.17
2019-02-05T08:49:07.630Z,7.77
2019-02-05T08:52:12.054Z,7.07
2019-02-05T08:55:18.223Z,7.33
2019-02-05T08:58:31.011Z,8.73
2019-02-05T09:01:36.453Z,8.40
2019-02-05T09:04:40.856Z,8.07
2019-02-05T09:07:45.223Z,8.33
2019-02-05T09:10:49.645Z,7.80
2019-02-05T09:13:54.083Z,8.80
2019-02-05T09:16:58.503Z,9.23
2019-02-05T09:20:02.813Z,9.47
2019-02-05T09:23:07.373Z,7.70
2019-02-05T09:26:11.788Z,6.50
2019-02-05T09:29:17.814Z,6.67
2019-02-05T09:32:22.148Z,8.03
2019-02-05T09:35:26.640Z,7.23
2019-02-05T09:38:31.098Z,6.37
2019-02-05T09:41:35.654Z,7.37
2019-02-05T09:44:39.961Z,7.33
2019-02-05T09:47:44.552Z,6.90
2019-02-05T09:50:49.242Z,6.13
2019-02-05T09:53:53.642Z,5.37
2019-02-05T09:56:59.160Z,5.50
2019-02-05T10:00:04.890Z,3.67
2019-02-05T10:03:09.726Z,3.60
2019-02-05T10:06:14.050Z,3.20
2019-02-05T10:09:18.948Z,2.83
2019-02-05T10:12:23.376Z,3.40
2019-02-05T10:15:29.896Z,3.23
2019-02-05T10:18:35.578Z,2.80
2019-02-05T10:21:39.910Z,2.73
2019-02-05T10:24:49.864Z,3.13
2019-02-05T10:27:55.678Z,2.80
2019-02-05T10:31:00.114Z,2.80
2019-02-05T10:34:05.133Z,3.33
2019-02-05T10:37:09.564Z,2.17
2019-02-05T10:40:14.379Z,3.40
2019-02-05T10:43:21.331Z,2.87
2019-02-05T10:46:28.950Z,2.80
2019-02-05T10:49:33.317Z,2.83
2019-02-05T10:52:37.687Z,3.40
2019-02-05T10:55:42.116Z,2.17
2019-02-05T10:58:46.487Z,2.73
2019-02-05T11:01:50.817Z,3.10
2019-02-05T11:04:55.401Z,3.53
2019-02-05T11:07:59.975Z,3.17
2019-02-05T11:11:04.289Z,2.93
2019-02-05T11:14:08.978Z,2.70
2019-02-05T11:17:13.323Z,3.50
2019-02-05T11:20:19.990Z,2.67
2019-02-05T11:23:27.130Z,2.50
2019-02-05T11:26:31.460Z,2.07
2019-02-05T11:29:38.739Z,2.60
2019-02-05T11:32:43.162Z,2.63
2019-02-05T11:35:47.487Z,3.03
2019-02-05T11:38:51.813Z,2.30
2019-02-05T11:41:56.809Z,2.67
2019-02-05T11:45:01.189Z,2.70
2019-02-05T11:48:08.617Z,2.07
2019-02-05T11:51:13.118Z,3.07
2019-02-05T11:54:17.631Z,3.40
2019-02-05T11:57:25.374Z,2.17
2019-02-05T12:00:51.865Z,2.57
2019-02-05T12:03:56.477Z,4.03
2019-02-05T12:07:01.017Z,2.57
2019-02-05T12:10:07.278Z,3.37
2019-02-05T12:13:11.803Z,2.40
2019-02-05T12:16:16.246Z,3.00
2019-02-05T12:19:20.715Z,2.80
2019-02-05T12:22:27.046Z,2.50
2019-02-05T12:25:31.424Z,2.37
2019-02-05T12:28:38.057Z,3.10
2019-02-05T12:31:42.742Z,3.17
2019-02-05T12:34:47.048Z,2.70
2019-02-05T12:37:51.558Z,3.37
2019-02-05T12:40:56.374Z,2.43
2019-02-05T12:44:00.712Z,2.60
2019-02-05T12:47:07.258Z,2.77
2019-02-05T12:50:24.347Z,2.80
2019-02-05T12:53:28.690Z,3.00
2019-02-05T12:56:33.101Z,2.40
2019-02-05T12:59:37.522Z,3.20
2019-02-05T13:02:41.864Z,2.87
2019-02-05T13:05:46.486Z,3.13
2019-02-05T13:08:50.893Z,2.53
2019-02-05T13:11:55.362Z,3.47
2019-02-05T13:14:59.687Z,3.50
2019-02-05T13:18:04.575Z,3.83
2019-02-05T13:21:08.982Z,3.17
2019-02-05T13:24:16.475Z,4.10
2019-02-05T13:27:19.549Z,2.93
2019-02-05T13:30:27.563Z,2.77
2019-02-05T13:33:31.844Z,3.17
2019-02-05T13:36:36.167Z,3.13
2019-02-05T13:39:43.582Z,2.57
2019-02-05T13:42:48.088Z,4.07
2019-02-05T13:45:52.923Z,2.60
2019-02-05T13:48:57.279Z,3.60
2019-02-05T13:52:01.758Z,3.40
2019-02-05T13:55:07.445Z,3.27
2019-02-05T13:58:12.925Z,2.30
2019-02-05T14:01:20.009Z,4.17
2019-02-05T14:04:23.595Z,2.73
2019-02-05T14:07:27.926Z,2.40
2019-02-05T14:10:34.556Z,2.30
2019-02-05T14:13:38.977Z,3.47
2019-02-05T14:16:43.506Z,3.13
2019-02-05T14:19:48.248Z,2.40
2019-02-05T14:22:52.757Z,2.73
2019-02-05T14:25:59.644Z,3.13
2019-02-05T14:29:03.238Z,2.80
2019-02-05T14:32:10.533Z,2.90
2019-02-05T14:35:15.629Z,2.17
2019-02-05T14:38:23.098Z,1.87
2019-02-05T14:41:27.524Z,3.63
2019-02-05T14:44:32.121Z,3.23
2019-02-05T14:47:36.535Z,2.70
2019-02-05T14:50:41.993Z,2.80
2019-02-05T14:53:46.316Z,2.73
2019-02-05T14:56:50.757Z,2.63
2019-02-05T14:59:55.112Z,3.60
2019-02-05T15:03:01.963Z,3.10
2019-02-05T15:06:06.008Z,3.83
2019-02-05T15:09:11.078Z,3.33
2019-02-05T15:12:15.556Z,2.47
2019-02-05T15:15:20.475Z,2.57
2019-02-05T15:18:25.575Z,3.53
2019-02-05T15:21:30.302Z,2.30
2019-02-05T15:24:37.445Z,2.83
2019-02-05T15:27:40.974Z,2.83
2019-02-05T15:30:46.140Z,3.00
2019-02-05T15:33:55.023Z,2.53
2019-02-05T15:36:59.349Z,3.17
2019-02-05T15:40:03.808Z,2.50
2019-02-05T15:43:08.493Z,3.67
2019-02-05T15:46:12.951Z,2.23
2019-02-05T15:49:19.865Z,2.47
2019-02-05T15:52:24.199Z,2.73
2019-02-05T15:55:28.540Z,3.07
2019-02-05T15:58:33.465Z,2.50
2019-02-05T16:01:37.822Z,2.83
2019-02-05T16:04:42.172Z,2.23
2019-02-05T16:07:46.915Z,3.73
2019-02-05T16:10:51.244Z,3.13
2019-02-05T16:13:55.580Z,3.37
2019-02-05T16:17:00.391Z,3.17
2019-02-05T16:20:05.536Z,2.83
2019-02-05T16:23:09.892Z,3.20
2019-02-05T16:26:14.596Z,3.27
2019-02-05T16:29:19.037Z,3.57
2019-02-05T16:32:23.400Z,3.33
2019-02-05T16:35:27.904Z,4.60
2019-02-05T16:38:32.399Z,3.40
2019-02-05T16:41:36.704Z,3.03
2019-02-05T16:44:41.083Z,4.27
2019-02-05T16:47:45.431Z,3.30
2019-02-05T16:50:50.023Z,2.80
2019-02-05T16:53:54.362Z,3.93
2019-02-05T16:56:58.741Z,3.47
2019-02-05T17:00:03.064Z,3.10
2019-02-05T17:03:07.639Z,3.70
2019-02-05T17:06:12.007Z,3.87
2019-02-05T17:09:17.397Z,3.80
2019-02-05T17:12:21.713Z,3.60
2019-02-05T17:15:26.236Z,4.80
2019-02-05T17:18:30.832Z,4.50
2019-02-05T17:21:35.198Z,4.00
2019-02-05T17:24:39.508Z,4.53
2019-02-05T17:27:43.849Z,3.73
2019-02-05T17:30:48.187Z,4.43
2019-02-05T17:33:52.601Z,4.83
2019-02-05T17:36:57.136Z,4.50
2019-02-05T17:40:01.720Z,4.60
2019-02-05T17:43:06.970Z,4.93
2019-02-05T17:46:11.502Z,5.07
2019-02-05T17:49:15.976Z,4.73
2019-02-05T17:52:20.279Z,3.73
2019-02-05T17:55:24.680Z,3.97
2019-02-05T17:58:29.019Z,4.83
2019-02-05T18:01:33.336Z,4.57
2019-02-05T18:04:38.088Z,4.93
2019-02-05T18:07:42.497Z,4.87
2019-02-05T18:10:47.441Z,4.20
2019-02-05T18:13:54.865Z,4.90
2019-02-05T18:16:59.192Z,4.33
2019-02-05T18:20:03.919Z,4.23
2019-02-05T18:23:08.308Z,4.20
2019-02-05T18:26:15.201Z,4.33
2019-02-05T18:29:19.610Z,5.03
2019-02-05T18:32:24.035Z,4.27
2019-02-05T18:35:31.594Z,3.87
2019-02-05T18:38:36.011Z,3.67
2019-02-05T18:41:40.340Z,4.87
2019-02-05T18:44:44.653Z,4.53
2019-02-05T18:47:48.993Z,3.87
2019-02-05T18:50:53.414Z,3.90
2019-02-05T18:53:59.446Z,4.23
2019-02-05T18:57:04.026Z,4.10
2019-02-05T19:00:24.450Z,4.67
2019-02-05T19:03:31.805Z,4.30
2019-02-05T19:06:36.226Z,3.87
2019-02-05T19:09:40.600Z,4.00
2019-02-05T19:12:44.957Z,4.83
2019-02-05T19:15:49.462Z,4.00
2019-02-05T19:18:54.058Z,4.60
2019-02-05T19:21:58.402Z,3.57
2019-02-05T19:25:17.690Z,4.50
2019-02-05T19:28:28.462Z,4.90
2019-02-05T19:31:35.776Z,5.07
2019-02-05T19:34:40.447Z,4.40
2019-02-05T19:37:44.802Z,4.90
2019-02-05T19:40:57.074Z,4.80
2019-02-05T19:43:55.459Z,4.93
2019-02-05T19:47:03.375Z,4.57
2019-02-05T19:50:07.910Z,4.63
2019-02-05T19:53:12.822Z,4.80
2019-02-05T19:56:17.257Z,5.23
2019-02-05T19:59:21.789Z,5.03
2019-02-05T20:02:26.174Z,6.47
2019-02-05T20:05:30.718Z,7.17
2019-02-05T20:08:36.830Z,7.37
2019-02-05T20:11:41.624Z,7.03
2019-02-05T20:14:46.132Z,7.10
2019-02-05T20:17:50.681Z,7.33
2019-02-05T20:20:55.138Z,5.90
2019-02-05T20:23:59.806Z,6.00
2019-02-05T20:27:04.732Z,6.37
2019-02-05T20:30:11.667Z,8.97
2019-02-05T20:33:16.008Z,9.70
2019-02-05T20:36:20.575Z,11.87
2019-02-05T20:39:28.224Z,12.53
2019-02-05T20:42:32.578Z,15.00
2019-02-05T20:45:40.061Z,15.87
2019-02-05T20:48:48.357Z,15.37
2019-02-05T20:51:53.171Z,13.93
2019-02-05T20:54:58.327Z,13.47
2019-02-05T20:58:03.336Z,12.80
2019-02-05T21:01:07.730Z,11.33
2019-02-05T21:04:21.338Z,10.90
2019-02-05T21:07:26.357Z,10.00
2019-02-05T21:10:30.676Z,8.70
2019-02-05T21:13:35.008Z,7.83
2019-02-05T21:16:39.799Z,8.93
2019-02-05T21:19:44.242Z,9.67
2019-02-05T21:22:56.706Z,8.10
2019-02-05T21:26:02.507Z,7.70
2019-02-05T21:29:06.807Z,8.20
2019-02-05T21:32:11.167Z,8.90
2019-02-05T21:35:15.689Z,10.87
2019-02-05T21:38:20.000Z,9.37
2019-02-05T21:41:24.489Z,8.27
2019-02-05T21:44:30.461Z,10.27
2019-02-05T21:47:36.962Z,8.00
2019-02-05T21:50:41.256Z,8.73
2019-02-05T21:53:46.747Z,8.67
2019-02-05T21:56:51.022Z,9.30
2019-02-05T21:59:55.458Z,10.67
2019-02-05T22:03:00.188Z,9.77
2019-02-05T22:06:05.171Z,8.40
2019-02-05T22:09:12.302Z,9.47
2019-02-05T22:12:16.670Z,9.17
2019-02-05T22:15:21.266Z,9.27
2019-02-05T22:18:25.580Z,9.27
2019-02-05T22:21:29.892Z,10.70
2019-02-05T22:24:34.214Z,10.37
2019-02-05T22:27:39.129Z,11.03
2019-02-05T22:30:43.457Z,11.97
2019-02-05T22:33:47.931Z,11.80
2019-02-05T22:36:52.345Z,11.27
2019-02-05T22:39:58.420Z,15.00
2019-02-05T22:43:02.752Z,16.20
2019-02-05T22:46:09.991Z,15.43
2019-02-05T22:49:14.695Z,14.93
2019-02-05T22:52:19.389Z,15.97
2019-02-05T22:55:23.957Z,14.67
2019-02-05T22:58:28.406Z,18.10
2019-02-05T23:01:57.729Z,18.90
2019-02-05T23:05:26.060Z,19.60
2019-02-05T23:08:32.426Z,19.50
2019-02-05T23:12:15.406Z,18.63
2019-02-05T23:15:22.585Z,22.10
2019-02-05T23:18:29.434Z,20.00
2019-02-05T23:21:34.745Z,22.10
2019-02-05T23:24:39.050Z,20.53
2019-02-05T23:27:43.380Z,24.53
2019-02-05T23:30:47.948Z,21.37
2019-02-05T23:33:52.464Z,20.63
2019-02-05T23:36:56.826Z,18.67
2019-02-05T23:40:01.205Z,21.30
2019-02-05T23:43:06.112Z,24.77
2019-02-05T23:46:13.174Z,20.97
2019-02-05T23:49:17.475Z,21.17
2019-02-05T23:52:21.966Z,24.90
2019-02-05T23:55:26.318Z,23.47
2019-02-05T23:58:30.614Z,21.33
